createdAt,value
2018-04-27T00:00:16.229Z,993.74
2018-04-27T00:01:16.203Z,993.68
2018-04-27T00:02:16.177Z,993.70
2018-04-27T00:03:16.157Z,993.66
2018-04-27T00:04:16.130Z,993.66
2018-04-27T00:05:16.107Z,993.66
2018-04-27T00:06:16.089Z,993.67
2018-04-27T00:07:16.080Z,993.64
2018-04-27T00:08:16.036Z,993.64
2018-04-27T00:09:16.022Z,993.63
2018-04-27T00:10:15.991Z,993.63
2018-04-27T00:11:15.965Z,993.67
2018-04-27T00:12:15.951Z,993.63
2018-04-27T00:13:15.923Z,993.66
2018-04-27T00:14:15.904Z,993.65
2018-04-27T00:15:15.876Z,993.67
2018-04-27T00:16:15.852Z,993.66
2018-04-27T00:17:15.830Z,993.63
2018-04-27T00:18:15.811Z,993.63
2018-04-27T00:19:15.811Z,993.65
2018-04-27T00:20:15.758Z,993.65
2018-04-27T00:21:15.782Z,993.66
2018-04-27T00:22:15.716Z,993.70
2018-04-27T00:23:15.701Z,993.73
2018-04-27T00:24:15.668Z,993.73
2018-04-27T00:25:15.643Z,993.73
2018-04-27T00:26:15.624Z,993.70
2018-04-27T00:27:15.596Z,993.69
2018-04-27T00:28:15.576Z,993.71
2018-04-27T00:29:15.551Z,993.69
2018-04-27T00:30:15.554Z,993.68
2018-04-27T00:31:15.516Z,993.67
2018-04-27T00:32:15.488Z,993.64
2018-04-27T00:33:15.467Z,993.73
2018-04-27T00:34:15.517Z,993.68
2018-04-27T00:35:15.413Z,993.66
2018-04-27T00:36:15.394Z,993.67
2018-04-27T00:37:15.395Z,993.63
2018-04-27T00:38:15.350Z,993.62
2018-04-27T00:39:15.321Z,993.61
2018-04-27T00:40:15.307Z,993.58
2018-04-27T00:41:15.277Z,993.59
2018-04-27T00:42:15.251Z,993.61
2018-04-27T00:43:15.231Z,993.60
2018-04-27T00:44:15.209Z,993.58
2018-04-27T00:45:15.200Z,993.59
2018-04-27T00:46:15.163Z,993.52
2018-04-27T00:47:15.138Z,993.51
2018-04-27T00:48:15.119Z,993.53
2018-04-27T00:49:15.098Z,993.55
2018-04-27T00:50:15.090Z,993.56
2018-04-27T00:51:15.046Z,993.51
2018-04-27T00:52:15.022Z,993.50
2018-04-27T00:53:14.999Z,993.50
2018-04-27T00:54:14.976Z,993.51
2018-04-27T00:55:14.964Z,993.49
2018-04-27T00:56:14.924Z,993.50
2018-04-27T00:57:14.904Z,993.52
2018-04-27T00:58:14.882Z,993.49
2018-04-27T00:59:14.908Z,993.44
2018-04-27T01:00:14.842Z,993.43
2018-04-27T01:01:14.810Z,993.47
2018-04-27T01:02:14.801Z,993.47
2018-04-27T01:03:14.766Z,993.43
2018-04-27T01:04:14.751Z,993.42
2018-04-27T01:05:14.720Z,993.46
2018-04-27T01:06:14.695Z,993.45
2018-04-27T01:07:14.690Z,993.46
2018-04-27T01:08:14.654Z,993.49
2018-04-27T01:09:14.631Z,993.46
2018-04-27T01:10:14.603Z,993.45
2018-04-27T01:11:14.579Z,993.46
2018-04-27T01:12:14.559Z,993.48
2018-04-27T01:13:14.538Z,993.47
2018-04-27T01:14:14.512Z,993.41
2018-04-27T01:15:14.487Z,993.43
2018-04-27T01:16:14.482Z,993.39
2018-04-27T01:17:14.460Z,993.44
2018-04-27T01:18:14.432Z,993.42
2018-04-27T01:19:14.409Z,993.45
2018-04-27T01:20:14.398Z,993.46
2018-04-27T01:21:14.347Z,993.45
2018-04-27T01:22:14.326Z,993.46
2018-04-27T01:23:14.301Z,993.40
2018-04-27T01:24:14.280Z,993.39
2018-04-27T01:25:29.142Z,993.45
2018-04-27T01:26:14.247Z,993.44
2018-04-27T01:27:14.215Z,993.44
2018-04-27T01:28:14.188Z,993.44
2018-04-27T01:29:14.164Z,993.46
2018-04-27T01:30:14.139Z,993.41
2018-04-27T01:31:14.118Z,993.45
2018-04-27T01:32:14.093Z,993.46
2018-04-27T01:33:14.066Z,993.47
2018-04-27T01:34:14.047Z,993.44
2018-04-27T01:35:14.022Z,993.45
2018-04-27T01:36:14.003Z,993.45
2018-04-27T01:37:14.018Z,993.45
2018-04-27T01:38:13.953Z,993.48
2018-04-27T01:39:13.975Z,993.47
2018-04-27T01:40:13.907Z,993.47
2018-04-27T01:41:13.881Z,993.44
2018-04-27T01:42:13.863Z,993.46
2018-04-27T01:43:13.836Z,993.44
2018-04-27T01:44:13.819Z,993.44
2018-04-27T01:45:13.790Z,993.49
2018-04-27T01:46:13.769Z,993.47
2018-04-27T01:47:13.747Z,993.47
2018-04-27T01:48:13.724Z,993.46
2018-04-27T01:49:13.697Z,993.48
2018-04-27T01:50:13.680Z,993.46
2018-04-27T01:51:13.652Z,993.45
2018-04-27T01:52:13.629Z,993.48
2018-04-27T01:53:13.605Z,993.48
2018-04-27T01:54:13.586Z,993.50
2018-04-27T01:55:13.564Z,993.48
2018-04-27T01:56:13.535Z,993.49
2018-04-27T01:57:13.511Z,993.52
2018-04-27T01:58:13.486Z,993.53
2018-04-27T01:59:13.471Z,993.51
2018-04-27T02:00:13.448Z,993.51
2018-04-27T02:01:13.417Z,993.48
2018-04-27T02:02:13.404Z,993.46
2018-04-27T02:03:13.377Z,993.45
2018-04-27T02:04:13.351Z,993.49
2018-04-27T02:05:13.325Z,993.46
2018-04-27T02:06:13.300Z,993.43
2018-04-27T02:07:13.293Z,993.44
2018-04-27T02:08:13.263Z,993.47
2018-04-27T02:09:13.233Z,993.46
2018-04-27T02:10:13.210Z,993.46
2018-04-27T02:11:13.186Z,993.44
2018-04-27T02:12:13.166Z,993.46
2018-04-27T02:13:13.137Z,993.46
2018-04-27T02:14:13.119Z,993.47
2018-04-27T02:15:13.109Z,993.47
2018-04-27T02:16:13.068Z,993.44
2018-04-27T02:17:13.048Z,993.44
2018-04-27T02:18:13.078Z,993.42
2018-04-27T02:19:13.001Z,993.42
2018-04-27T02:20:13.087Z,993.45
2018-04-27T02:21:12.951Z,993.46
2018-04-27T02:22:12.930Z,993.46
2018-04-27T02:23:12.911Z,993.51
2018-04-27T02:24:12.885Z,993.48
2018-04-27T02:25:12.859Z,993.50
2018-04-27T02:26:12.834Z,993.48
2018-04-27T02:27:12.816Z,993.43
2018-04-27T02:28:12.791Z,993.49
2018-04-27T02:29:12.759Z,993.48
2018-04-27T02:30:12.741Z,993.51
2018-04-27T02:31:12.718Z,993.46
2018-04-27T02:32:12.700Z,993.49
2018-04-27T02:33:12.676Z,993.46
2018-04-27T02:34:12.655Z,993.45
2018-04-27T02:35:12.622Z,993.41
2018-04-27T02:36:12.604Z,993.43
2018-04-27T02:37:12.573Z,993.43
2018-04-27T02:38:12.552Z,993.42
2018-04-27T02:39:12.537Z,993.42
2018-04-27T02:40:12.534Z,993.43
2018-04-27T02:41:12.591Z,993.37
2018-04-27T02:42:12.474Z,993.37
2018-04-27T02:43:12.430Z,993.36
2018-04-27T02:44:12.413Z,993.35
2018-04-27T02:45:12.384Z,993.32
2018-04-27T02:46:12.359Z,993.33
2018-04-27T02:47:12.339Z,993.33
2018-04-27T02:48:12.313Z,993.38
2018-04-27T02:49:12.291Z,993.35
2018-04-27T02:50:12.269Z,993.37
2018-04-27T02:51:12.245Z,993.32
2018-04-27T02:52:12.222Z,993.33
2018-04-27T02:53:12.197Z,993.36
2018-04-27T02:54:12.176Z,993.35
2018-04-27T02:55:12.179Z,993.34
2018-04-27T02:56:12.140Z,993.33
2018-04-27T02:57:12.099Z,993.32
2018-04-27T02:58:12.076Z,993.27
2018-04-27T02:59:12.058Z,993.27
2018-04-27T03:00:12.030Z,993.26
2018-04-27T03:01:12.012Z,993.24
2018-04-27T03:02:11.984Z,993.21
2018-04-27T03:03:11.958Z,993.21
2018-04-27T03:04:11.938Z,993.20
2018-04-27T03:05:11.914Z,993.17
2018-04-27T03:06:11.893Z,993.18
2018-04-27T03:07:11.863Z,993.17
2018-04-27T03:08:11.853Z,993.18
2018-04-27T03:09:11.815Z,993.18
2018-04-27T03:10:11.794Z,993.16
2018-04-27T03:11:11.769Z,993.17
2018-04-27T03:12:11.750Z,993.17
2018-04-27T03:13:11.719Z,993.21
2018-04-27T03:14:11.698Z,993.16
2018-04-27T03:15:11.677Z,993.18
2018-04-27T03:16:11.670Z,993.20
2018-04-27T03:17:11.629Z,993.16
2018-04-27T03:18:11.604Z,993.17
2018-04-27T03:19:11.579Z,993.16
2018-04-27T03:20:11.562Z,993.14
2018-04-27T03:21:11.535Z,993.14
2018-04-27T03:22:11.518Z,993.15
2018-04-27T03:23:11.495Z,993.15
2018-04-27T03:24:11.460Z,993.13
2018-04-27T03:25:11.437Z,993.13
2018-04-27T03:26:11.426Z,993.11
2018-04-27T03:27:11.395Z,993.12
2018-04-27T03:28:11.413Z,993.05
2018-04-27T03:29:11.341Z,993.08
2018-04-27T03:30:11.383Z,993.08
2018-04-27T03:31:11.293Z,993.07
2018-04-27T03:32:11.285Z,993.08
2018-04-27T03:33:11.252Z,993.09
2018-04-27T03:34:11.312Z,993.11
2018-04-27T03:35:11.246Z,993.12
2018-04-27T03:36:11.178Z,993.08
2018-04-27T03:37:11.152Z,993.11
2018-04-27T03:38:11.129Z,993.09
2018-04-27T03:39:11.111Z,993.09
2018-04-27T03:40:11.098Z,993.08
2018-04-27T03:41:11.056Z,993.09
2018-04-27T03:42:11.033Z,993.08
2018-04-27T03:43:11.009Z,993.08
2018-04-27T03:44:10.984Z,993.12
2018-04-27T03:45:10.961Z,993.11
2018-04-27T03:46:10.936Z,993.10
2018-04-27T03:47:10.922Z,993.13
2018-04-27T03:48:10.889Z,993.15
2018-04-27T03:49:10.870Z,993.12
2018-04-27T03:50:10.844Z,993.10
2018-04-27T03:51:10.822Z,993.10
2018-04-27T03:52:10.794Z,993.06
2018-04-27T03:53:10.771Z,993.06
2018-04-27T03:54:10.751Z,993.07
2018-04-27T03:55:10.727Z,993.06
2018-04-27T03:56:10.697Z,993.09
2018-04-27T03:57:10.689Z,993.08
2018-04-27T03:58:10.656Z,993.05
2018-04-27T03:59:10.625Z,993.04
2018-04-27T04:00:10.621Z,993.01
2018-04-27T04:01:10.708Z,993.03
2018-04-27T04:02:10.582Z,993.00
2018-04-27T04:03:10.549Z,992.99
2018-04-27T04:04:10.508Z,993.02
2018-04-27T04:05:10.489Z,993.02
2018-04-27T04:06:10.460Z,993.01
2018-04-27T04:07:10.435Z,992.97
2018-04-27T04:08:10.428Z,992.99
2018-04-27T04:09:10.390Z,992.97
2018-04-27T04:10:10.364Z,992.98
2018-04-27T04:11:10.386Z,992.96
2018-04-27T04:12:10.330Z,992.97
2018-04-27T04:13:10.325Z,993.01
2018-04-27T04:14:10.290Z,992.97
2018-04-27T04:15:10.257Z,992.95
2018-04-27T04:16:10.221Z,992.96
2018-04-27T04:17:10.198Z,992.95
2018-04-27T04:18:10.177Z,992.97
2018-04-27T04:19:10.148Z,992.98
2018-04-27T04:20:10.125Z,992.95
2018-04-27T04:21:10.100Z,992.96
2018-04-27T04:22:10.074Z,992.97
2018-04-27T04:23:10.057Z,992.98
2018-04-27T04:24:10.035Z,992.95
2018-04-27T04:25:10.238Z,992.92
2018-04-27T04:26:12.687Z,992.98
2018-04-27T04:27:09.957Z,992.97
2018-04-27T04:28:09.940Z,993.03
2018-04-27T04:29:09.907Z,992.97
2018-04-27T04:30:09.883Z,992.99
2018-04-27T04:31:09.863Z,992.96
2018-04-27T04:32:09.836Z,993.00
2018-04-27T04:33:09.813Z,992.98
2018-04-27T04:34:09.792Z,992.98
2018-04-27T04:35:09.773Z,992.98
2018-04-27T04:36:09.740Z,993.00
2018-04-27T04:37:09.717Z,993.02
2018-04-27T04:38:09.694Z,992.97
2018-04-27T04:39:09.667Z,992.98
2018-04-27T04:40:09.660Z,993.00
2018-04-27T04:41:09.623Z,992.97
2018-04-27T04:42:09.604Z,992.97
2018-04-27T04:43:09.573Z,992.99
2018-04-27T04:44:09.548Z,992.99
2018-04-27T04:45:09.578Z,992.94
2018-04-27T04:46:09.496Z,992.93
2018-04-27T04:47:09.477Z,992.92
2018-04-27T04:48:09.455Z,992.92
2018-04-27T04:49:09.429Z,992.92
2018-04-27T04:50:09.402Z,992.90
2018-04-27T04:51:09.416Z,992.92
2018-04-27T04:52:09.354Z,992.88
2018-04-27T04:53:09.331Z,992.87
2018-04-27T04:54:09.312Z,992.91
2018-04-27T04:55:09.305Z,992.90
2018-04-27T04:56:09.262Z,992.91
2018-04-27T04:57:09.237Z,992.91
2018-04-27T04:58:09.210Z,992.92
2018-04-27T04:59:09.193Z,992.94
2018-04-27T05:00:09.164Z,992.94
2018-04-27T05:01:09.141Z,992.94
2018-04-27T05:02:09.114Z,992.96
2018-04-27T05:03:09.091Z,992.99
2018-04-27T05:04:09.070Z,992.93
2018-04-27T05:05:09.051Z,992.91
2018-04-27T05:06:09.025Z,992.95
2018-04-27T05:07:09.014Z,992.96
2018-04-27T05:08:08.975Z,992.95
2018-04-27T05:09:08.959Z,992.93
2018-04-27T05:10:08.936Z,992.91
2018-04-27T05:11:08.901Z,992.94
2018-04-27T05:12:08.876Z,992.94
2018-04-27T05:13:08.854Z,992.89
2018-04-27T05:14:08.832Z,992.90
2018-04-27T05:15:08.809Z,992.89
2018-04-27T05:16:08.778Z,992.91
2018-04-27T05:17:08.755Z,992.90
2018-04-27T05:18:08.729Z,992.92
2018-04-27T05:19:08.713Z,992.92
2018-04-27T05:20:08.692Z,992.95
2018-04-27T05:21:08.673Z,992.94
2018-04-27T05:22:08.649Z,992.97
2018-04-27T05:23:08.614Z,993.00
2018-04-27T05:24:08.612Z,993.01
2018-04-27T05:25:08.577Z,992.97
2018-04-27T05:26:08.536Z,992.97
2018-04-27T05:27:11.182Z,992.96
2018-04-27T05:28:08.490Z,992.99
2018-04-27T05:29:08.507Z,992.98
2018-04-27T05:30:08.443Z,993.02
2018-04-27T05:31:08.417Z,993.01
2018-04-27T05:32:08.392Z,993.03
2018-04-27T05:33:08.373Z,993.03
2018-04-27T05:34:08.346Z,993.01
2018-04-27T05:35:08.326Z,992.97
2018-04-27T05:36:08.299Z,993.00
2018-04-27T05:37:08.277Z,993.00
2018-04-27T05:38:08.250Z,992.94
2018-04-27T05:39:08.225Z,992.98
2018-04-27T05:40:08.199Z,992.96
2018-04-27T05:41:08.175Z,992.93
2018-04-27T05:42:08.157Z,992.91
2018-04-27T05:43:08.131Z,992.93
2018-04-27T05:44:08.113Z,992.88
2018-04-27T05:45:08.087Z,992.86
2018-04-27T05:46:08.063Z,992.89
2018-04-27T05:47:08.037Z,992.89
2018-04-27T05:48:08.012Z,992.87
2018-04-27T05:49:07.990Z,992.88
2018-04-27T05:50:07.961Z,992.87
2018-04-27T05:51:07.930Z,992.88
2018-04-27T05:52:07.912Z,992.88
2018-04-27T05:53:07.898Z,992.89
2018-04-27T05:54:07.937Z,992.89
2018-04-27T05:55:07.845Z,992.88
2018-04-27T05:56:07.817Z,992.87
2018-04-27T05:57:07.790Z,992.87
2018-04-27T05:58:07.773Z,992.88
2018-04-27T05:59:07.744Z,992.84
2018-04-27T06:00:07.725Z,992.84
2018-04-27T06:01:07.696Z,992.86
2018-04-27T06:02:07.673Z,992.86
2018-04-27T06:03:07.648Z,992.84
2018-04-27T06:04:07.625Z,992.81
2018-04-27T06:05:07.608Z,992.86
2018-04-27T06:06:07.582Z,992.80
2018-04-27T06:07:07.617Z,992.80
2018-04-27T06:08:07.527Z,992.76
2018-04-27T06:09:07.522Z,992.78
2018-04-27T06:10:07.550Z,992.78
2018-04-27T06:11:07.459Z,992.76
2018-04-27T06:12:07.444Z,992.75
2018-04-27T06:13:07.412Z,992.74
2018-04-27T06:14:07.387Z,992.75
2018-04-27T06:15:07.363Z,992.71
2018-04-27T06:16:07.410Z,992.70
2018-04-27T06:17:07.315Z,992.67
2018-04-27T06:18:07.293Z,992.69
2018-04-27T06:19:07.272Z,992.67
2018-04-27T06:20:07.252Z,992.66
2018-04-27T06:21:07.219Z,992.65
2018-04-27T06:22:07.194Z,992.66
2018-04-27T06:23:07.175Z,992.65
2018-04-27T06:24:07.174Z,992.67
2018-04-27T06:25:07.129Z,992.64
2018-04-27T06:26:07.104Z,992.66
2018-04-27T06:27:07.078Z,992.66
2018-04-27T06:28:07.053Z,992.66
2018-04-27T06:29:07.055Z,992.64
2018-04-27T06:30:07.006Z,992.66
2018-04-27T06:31:06.989Z,992.65
2018-04-27T06:32:06.978Z,992.63
2018-04-27T06:33:06.937Z,992.64
2018-04-27T06:34:06.916Z,992.65
2018-04-27T06:35:06.889Z,992.64
2018-04-27T06:36:06.865Z,992.61
2018-04-27T06:37:06.855Z,992.67
2018-04-27T06:38:06.815Z,992.64
2018-04-27T06:39:06.803Z,992.67
2018-04-27T06:40:06.773Z,992.66
2018-04-27T06:41:06.748Z,992.63
2018-04-27T06:42:06.742Z,992.62
2018-04-27T06:43:06.729Z,992.67
2018-04-27T06:44:06.686Z,992.65
2018-04-27T06:45:06.697Z,992.65
2018-04-27T06:46:06.627Z,992.65
2018-04-27T06:47:06.604Z,992.63
2018-04-27T06:48:06.586Z,992.65
2018-04-27T06:49:06.570Z,992.64
2018-04-27T06:50:06.534Z,992.68
2018-04-27T06:51:06.516Z,992.66
2018-04-27T06:52:06.489Z,992.70
2018-04-27T06:53:06.470Z,992.69
2018-04-27T06:54:06.450Z,992.67
2018-04-27T06:55:06.419Z,992.68
2018-04-27T06:56:06.411Z,992.62
2018-04-27T06:57:06.371Z,992.65
2018-04-27T06:58:09.234Z,992.61
2018-04-27T06:59:06.358Z,992.56
2018-04-27T07:00:06.303Z,992.57
2018-04-27T07:01:06.278Z,992.56
2018-04-27T07:02:06.255Z,992.64
2018-04-27T07:03:06.233Z,992.59
2018-04-27T07:04:06.209Z,992.59
2018-04-27T07:05:06.286Z,992.60
2018-04-27T07:06:06.174Z,992.60
2018-04-27T07:07:06.136Z,992.60
2018-04-27T07:08:06.117Z,992.59
2018-04-27T07:09:06.107Z,992.60
2018-04-27T07:10:06.066Z,992.60
2018-04-27T07:11:06.055Z,992.63
2018-04-27T07:12:06.021Z,992.57
2018-04-27T07:13:05.999Z,992.52
2018-04-27T07:14:05.974Z,992.54
2018-04-27T07:15:05.953Z,992.51
2018-04-27T07:16:05.928Z,992.55
2018-04-27T07:17:05.932Z,992.54
2018-04-27T07:18:05.897Z,992.51
2018-04-27T07:19:05.863Z,992.54
2018-04-27T07:20:05.836Z,992.51
2018-04-27T07:21:05.821Z,992.54
2018-04-27T07:22:05.822Z,992.53
2018-04-27T07:23:05.782Z,992.50
2018-04-27T07:24:05.784Z,992.47
2018-04-27T07:25:05.717Z,992.49
2018-04-27T07:26:05.699Z,992.43
2018-04-27T07:27:05.675Z,992.43
2018-04-27T07:28:05.648Z,992.41
2018-04-27T07:29:05.625Z,992.41
2018-04-27T07:30:05.614Z,992.42
2018-04-27T07:31:05.581Z,992.41
2018-04-27T07:32:05.558Z,992.42
2018-04-27T07:33:05.535Z,992.40
2018-04-27T07:34:05.556Z,992.36
2018-04-27T07:35:05.491Z,992.34
2018-04-27T07:36:05.466Z,992.29
2018-04-27T07:37:05.447Z,992.34
2018-04-27T07:38:05.420Z,992.31
2018-04-27T07:39:05.397Z,992.28
2018-04-27T07:40:05.375Z,992.29
2018-04-27T07:41:05.352Z,992.31
2018-04-27T07:42:05.328Z,992.31
2018-04-27T07:43:05.301Z,992.32
2018-04-27T07:44:05.280Z,992.30
2018-04-27T07:45:05.257Z,992.30
2018-04-27T07:46:05.237Z,992.29
2018-04-27T07:47:05.214Z,992.30
2018-04-27T07:48:05.192Z,992.27
2018-04-27T07:49:05.166Z,992.31
2018-04-27T07:50:05.146Z,992.31
2018-04-27T07:51:05.124Z,992.28
2018-04-27T07:52:05.100Z,992.32
2018-04-27T07:53:05.077Z,992.30
2018-04-27T07:54:05.056Z,992.30
2018-04-27T07:55:05.031Z,992.26
2018-04-27T07:56:05.011Z,992.27
2018-04-27T07:57:04.984Z,992.25
2018-04-27T07:58:04.963Z,992.21
2018-04-27T07:59:07.737Z,992.20
2018-04-27T08:00:04.916Z,992.18
2018-04-27T08:01:04.898Z,992.18
2018-04-27T08:02:04.998Z,992.15
2018-04-27T08:03:04.851Z,992.16
2018-04-27T08:04:04.862Z,992.12
2018-04-27T08:05:04.863Z,992.15
2018-04-27T08:06:04.800Z,992.18
2018-04-27T08:07:04.763Z,992.19
2018-04-27T08:08:04.738Z,992.16
2018-04-27T08:09:04.721Z,992.20
2018-04-27T08:10:04.704Z,992.20
2018-04-27T08:11:04.669Z,992.20
2018-04-27T08:12:04.648Z,992.21
2018-04-27T08:13:04.631Z,992.18
2018-04-27T08:14:04.606Z,992.19
2018-04-27T08:15:04.581Z,992.16
2018-04-27T08:16:04.565Z,992.15
2018-04-27T08:17:04.535Z,992.13
2018-04-27T08:18:04.513Z,992.10
2018-04-27T08:19:04.518Z,992.10
2018-04-27T08:20:04.468Z,992.10
2018-04-27T08:21:04.450Z,992.09
2018-04-27T08:22:04.426Z,992.09
2018-04-27T08:23:04.402Z,992.10
2018-04-27T08:24:04.384Z,992.09
2018-04-27T08:25:04.359Z,992.11
2018-04-27T08:26:04.344Z,992.07
2018-04-27T08:27:04.324Z,992.06
2018-04-27T08:28:04.296Z,992.06
2018-04-27T08:29:04.271Z,992.06
2018-04-27T08:30:04.247Z,992.08
2018-04-27T08:31:04.234Z,992.12
2018-04-27T08:32:04.216Z,992.11
2018-04-27T08:33:04.204Z,992.11
2018-04-27T08:34:04.164Z,992.09
2018-04-27T08:35:04.139Z,992.07
2018-04-27T08:36:04.134Z,992.03
2018-04-27T08:37:04.092Z,992.06
2018-04-27T08:38:04.069Z,992.00
2018-04-27T08:39:04.051Z,992.00
2018-04-27T08:40:04.040Z,992.02
2018-04-27T08:41:04.009Z,991.96
2018-04-27T08:42:04.009Z,991.95
2018-04-27T08:43:03.963Z,991.95
2018-04-27T08:44:03.947Z,991.96
2018-04-27T08:45:03.958Z,991.94
2018-04-27T08:46:04.188Z,991.96
2018-04-27T08:47:03.887Z,991.96
2018-04-27T08:48:03.854Z,991.94
2018-04-27T08:49:03.835Z,991.88
2018-04-27T08:50:03.810Z,991.90
2018-04-27T08:51:03.799Z,991.86
2018-04-27T08:52:03.773Z,991.81
2018-04-27T08:53:03.757Z,991.78
2018-04-27T08:54:03.735Z,991.76
2018-04-27T08:55:03.707Z,991.75
2018-04-27T08:56:03.686Z,991.75
2018-04-27T08:57:03.664Z,991.71
2018-04-27T08:58:03.646Z,991.73
2018-04-27T08:59:03.625Z,991.76
2018-04-27T09:00:03.605Z,991.68
2018-04-27T09:01:03.584Z,991.67
2018-04-27T09:02:03.566Z,991.66
2018-04-27T09:03:03.538Z,991.62
2018-04-27T09:04:03.513Z,991.62
2018-04-27T09:05:03.505Z,991.58
2018-04-27T09:06:03.479Z,991.57
2018-04-27T09:07:03.640Z,991.58
2018-04-27T09:08:03.433Z,991.55
2018-04-27T09:09:03.413Z,991.54
2018-04-27T09:10:03.406Z,991.50
2018-04-27T09:11:03.382Z,991.51
2018-04-27T09:12:03.353Z,991.47
2018-04-27T09:13:03.334Z,991.42
2018-04-27T09:14:03.308Z,991.42
2018-04-27T09:15:03.287Z,991.47
2018-04-27T09:16:03.283Z,991.45
2018-04-27T09:17:03.251Z,991.43
2018-04-27T09:18:03.228Z,991.39
2018-04-27T09:19:03.214Z,991.34
2018-04-27T09:20:03.186Z,991.40
2018-04-27T09:21:03.166Z,991.33
2018-04-27T09:22:03.145Z,991.31
2018-04-27T09:23:03.128Z,991.24
2018-04-27T09:24:03.108Z,991.22
2018-04-27T09:25:03.098Z,991.24
2018-04-27T09:26:03.077Z,991.27
2018-04-27T09:27:03.052Z,991.29
2018-04-27T09:28:03.067Z,991.26
2018-04-27T09:29:03.056Z,991.27
2018-04-27T09:30:02.999Z,991.29
2018-04-27T09:31:02.980Z,991.28
2018-04-27T09:32:02.961Z,991.29
2018-04-27T09:33:02.950Z,991.25
2018-04-27T09:34:02.927Z,991.28
2018-04-27T09:35:02.921Z,991.23
2018-04-27T09:36:02.909Z,991.27
2018-04-27T09:37:02.893Z,991.27
2018-04-27T09:38:02.860Z,991.26
2018-04-27T09:39:02.846Z,991.19
2018-04-27T09:40:02.827Z,991.17
2018-04-27T09:41:02.895Z,991.13
2018-04-27T09:42:02.793Z,991.15
2018-04-27T09:43:02.774Z,991.18
2018-04-27T09:44:02.761Z,991.09
2018-04-27T09:45:02.745Z,991.13
2018-04-27T09:46:02.731Z,991.14
2018-04-27T09:47:02.712Z,991.09
2018-04-27T09:48:02.695Z,991.06
2018-04-27T09:49:02.678Z,991.03
2018-04-27T09:50:02.663Z,991.01
2018-04-27T09:51:02.652Z,991.02
2018-04-27T09:52:02.631Z,991.02
2018-04-27T09:53:02.614Z,991.03
2018-04-27T09:54:02.599Z,991.05
2018-04-27T09:55:02.581Z,990.96
2018-04-27T09:56:02.566Z,990.90
2018-04-27T09:57:02.553Z,990.89
2018-04-27T09:58:02.530Z,990.89
2018-04-27T09:59:02.519Z,990.85
2018-04-27T10:00:38.253Z,990.84
2018-04-27T10:01:02.481Z,990.78
2018-04-27T10:02:02.464Z,990.81
2018-04-27T10:03:02.446Z,990.75
2018-04-27T10:04:02.440Z,990.76
2018-04-27T10:05:02.414Z,990.74
2018-04-27T10:06:02.397Z,990.69
2018-04-27T10:07:02.385Z,990.71
2018-04-27T10:08:02.365Z,990.64
2018-04-27T10:09:02.344Z,990.71
2018-04-27T10:10:02.343Z,990.68
2018-04-27T10:11:02.316Z,990.67
2018-04-27T10:12:02.296Z,990.65
2018-04-27T10:13:02.276Z,990.58
2018-04-27T10:14:02.261Z,990.54
2018-04-27T10:15:02.249Z,990.56
2018-04-27T10:16:02.225Z,990.52
2018-04-27T10:17:02.215Z,990.48
2018-04-27T10:18:02.193Z,990.50
2018-04-27T10:19:02.181Z,990.50
2018-04-27T10:20:02.159Z,990.44
2018-04-27T10:21:02.175Z,990.49
2018-04-27T10:22:02.120Z,990.44
2018-04-27T10:23:02.107Z,990.45
2018-04-27T10:24:02.088Z,990.42
2018-04-27T10:25:02.067Z,990.39
2018-04-27T10:26:02.059Z,990.34
2018-04-27T10:27:02.033Z,990.36
2018-04-27T10:28:02.015Z,990.32
2018-04-27T10:29:02.001Z,990.32
2018-04-27T10:30:01.984Z,990.28
2018-04-27T10:31:01.983Z,990.28
2018-04-27T10:32:01.946Z,990.30
2018-04-27T10:33:01.928Z,990.23
2018-04-27T10:34:01.911Z,990.21
2018-04-27T10:35:01.889Z,990.21
2018-04-27T10:36:01.872Z,990.20
2018-04-27T10:37:01.854Z,990.14
2018-04-27T10:38:01.851Z,990.09
2018-04-27T10:39:01.819Z,990.14
2018-04-27T10:40:01.801Z,990.03
2018-04-27T10:41:01.781Z,990.02
2018-04-27T10:42:01.781Z,990.00
2018-04-27T10:43:01.796Z,989.99
2018-04-27T10:44:01.730Z,989.99
2018-04-27T10:45:01.709Z,989.97
2018-04-27T10:46:01.705Z,990.00
2018-04-27T10:47:01.676Z,989.98
2018-04-27T10:48:01.664Z,989.97
2018-04-27T10:49:01.640Z,989.89
2018-04-27T10:50:01.655Z,989.90
2018-04-27T10:51:01.602Z,989.89
2018-04-27T10:52:01.584Z,989.84
2018-04-27T10:53:01.565Z,989.86
2018-04-27T10:54:01.544Z,989.90
2018-04-27T10:55:01.529Z,989.85
2018-04-27T10:56:01.549Z,989.87
2018-04-27T10:57:01.493Z,989.86
2018-04-27T10:58:01.473Z,989.79
2018-04-27T10:59:01.460Z,989.70
2018-04-27T11:00:01.443Z,989.79
2018-04-27T11:02:33.614Z,989.72
2018-04-27T11:03:33.529Z,989.90
2018-04-27T11:05:29.532Z,989.72
2018-04-27T11:06:29.472Z,989.70
2018-04-27T11:08:25.421Z,989.67
2018-04-27T11:09:25.331Z,989.70
2018-04-27T11:11:18.772Z,989.60
2018-04-27T11:12:18.697Z,989.57
2018-04-27T11:14:14.663Z,989.51
2018-04-27T11:15:14.602Z,989.53
2018-04-27T11:17:10.547Z,989.48
2018-04-27T11:18:10.455Z,989.45
2018-04-27T11:20:03.911Z,989.46
2018-04-27T11:21:03.836Z,989.44
2018-04-27T11:22:59.805Z,989.56
2018-04-27T11:23:59.710Z,989.49
2018-04-27T11:25:53.165Z,989.82
2018-04-27T11:26:53.081Z,990.14
2018-04-27T11:28:49.061Z,990.20
2018-04-27T11:29:48.963Z,990.16
2018-04-27T11:31:45.013Z,990.25
2018-04-27T11:32:44.910Z,990.23
2018-04-27T11:34:40.918Z,990.60
2018-04-27T11:35:40.838Z,990.57
2018-04-27T11:37:36.794Z,990.75
2018-04-27T11:38:36.771Z,990.74
2018-04-27T11:40:30.159Z,990.68
2018-04-27T11:41:30.071Z,990.94
2018-04-27T11:43:26.036Z,990.87
2018-04-27T11:44:25.957Z,990.99
2018-04-27T11:46:21.962Z,990.34
2018-04-27T11:47:21.896Z,989.86
2018-04-27T11:49:17.883Z,989.46
2018-04-27T11:50:17.820Z,990.48
2018-04-27T11:52:13.771Z,990.87
2018-04-27T11:53:13.751Z,990.35
2018-04-27T11:55:09.652Z,990.56
2018-04-27T11:56:09.595Z,990.62
2018-04-27T11:58:05.533Z,990.95
2018-04-27T11:59:05.457Z,990.80
2018-04-27T12:01:01.476Z,990.74
2018-04-27T12:02:01.447Z,990.44
2018-04-27T12:03:54.807Z,990.54
2018-04-27T12:04:54.715Z,990.62
2018-04-27T12:06:50.687Z,990.41
2018-04-27T12:07:50.629Z,990.33
2018-04-27T12:09:46.593Z,989.86
2018-04-27T12:10:46.577Z,989.74
2018-04-27T12:12:39.967Z,989.12
2018-04-27T12:13:39.885Z,989.01
2018-04-27T12:15:36.703Z,988.90
2018-04-27T12:16:36.647Z,988.91
2018-04-27T12:18:30.118Z,989.08
2018-04-27T12:19:30.037Z,988.97
2018-04-27T12:21:23.505Z,988.81
2018-04-27T12:22:23.440Z,988.87
2018-04-27T12:24:19.409Z,989.03
2018-04-27T12:25:19.305Z,988.81
2018-04-27T12:27:15.352Z,988.78
2018-04-27T12:28:15.205Z,988.80
2018-04-27T12:30:11.165Z,988.66
2018-04-27T12:31:11.102Z,988.61
2018-04-27T12:33:07.108Z,988.53
2018-04-27T12:34:07.022Z,988.46
2018-04-27T12:36:00.741Z,988.41
2018-04-27T12:37:00.426Z,988.38
2018-04-27T12:38:56.412Z,988.37
2018-04-27T12:39:56.341Z,988.40
2018-04-27T12:41:52.289Z,988.40
2018-04-27T12:42:52.201Z,988.32
2018-04-27T12:44:45.652Z,988.26
2018-04-27T12:45:45.571Z,988.26
2018-04-27T12:47:41.521Z,988.26
2018-04-27T12:48:41.424Z,988.25
2018-04-27T12:50:37.398Z,988.24
2018-04-27T12:51:37.306Z,988.20
2018-04-27T12:53:33.269Z,988.33
2018-04-27T12:54:33.186Z,988.33
2018-04-27T12:56:26.661Z,988.25
2018-04-27T12:57:26.583Z,988.25
2018-04-27T12:59:20.030Z,988.11
2018-04-27T13:00:19.954Z,988.30
2018-04-27T13:02:15.932Z,988.13
2018-04-27T13:03:15.849Z,987.99
2018-04-27T13:05:11.796Z,988.02
2018-04-27T13:06:11.713Z,987.97
2018-04-27T13:08:08.567Z,988.00
2018-04-27T13:09:08.458Z,987.95